sensor_id;sensor_type;location;lat;lon;timestamp;pressure;altitude;pressure_sealevel;temperature;humidity
32733;BME280;11867;51.198;11.966;2023-02-13T00:00:45;102710.63;;;8.17;98.84
32733;BME280;11867;51.198;11.966;2023-02-13T00:01:48;102694.94;;;8.25;98.70
32733;BME280;11867;51.198;11.966;2023-02-13T00:02:50;102708.06;;;8.02;99.21
32733;BME280;11867;51.198;11.966;2023-02-13T00:03:55;102710.81;;;8.08;100.00
32733;BME280;11867;51.198;11.966;2023-02-13T00:04:56;102695.09;;;7.91;100.00
32733;BME280;11867;51.198;11.966;2023-02-13T00:05:59;102695.91;;;7.84;100.00
32733;BME280;11867;51.198;11.966;2023-02-13T00:07:00;102717.03;;;7.96;100.00
32733;BME280;11867;51.198;11.966;2023-02-13T00:08:04;102701.31;;;7.78;100.00
32733;BME280;11867;51.198;11.966;2023-02-13T00:09:05;102705.75;;;7.99;100.00
32733;BME280;11867;51.198;11.966;2023-02-13T00:10:11;102705.13;;;7.97;100.00
32733;BME280;11867;51.198;11.966;2023-02-13T00:11:13;102708.03;;;7.88;100.00
32733;BME280;11867;51.198;11.966;2023-02-13T00:12:16;102706.31;;;7.74;100.00
32733;BME280;11867;51.198;11.966;2023-02-13T00:13:17;102697.94;;;7.69;100.00
32733;BME280;11867;51.198;11.966;2023-02-13T00:14:20;102705.47;;;7.74;100.00
32733;BME280;11867;51.198;11.966;2023-02-13T00:15:22;102704.41;;;7.68;100.00
32733;BME280;11867;51.198;11.966;2023-02-13T00:16:24;102701.72;;;7.75;100.00
32733;BME280;11867;51.198;11.966;2023-02-13T00:17:27;102695.25;;;7.76;100.00
32733;BME280;11867;51.198;11.966;2023-02-13T00:18:32;102688.38;;;7.86;100.00
32733;BME280;11867;51.198;11.966;2023-02-13T00:19:36;102692.00;;;7.52;100.00
32733;BME280;11867;51.198;11.966;2023-02-13T00:20:38;102701.22;;;7.58;100.00
32733;BME280;11867;51.198;11.966;2023-02-13T00:21:40;102686.19;;;7.55;100.00
32733;BME280;11867;51.198;11.966;2023-02-13T00:22:42;102689.75;;;7.62;100.00
32733;BME280;11867;51.198;11.966;2023-02-13T00:23:45;102685.84;;;7.78;100.00
32733;BME280;11867;51.198;11.966;2023-02-13T00:24:46;102692.16;;;7.92;100.00
32733;BME280;11867;51.198;11.966;2023-02-13T00:25:49;102687.94;;;7.76;100.00
32733;BME280;11867;51.198;11.966;2023-02-13T00:26:51;102683.56;;;7.75;100.00
32733;BME280;11867;51.198;11.966;2023-02-13T00:27:53;102698.41;;;7.79;100.00
32733;BME280;11867;51.198;11.966;2023-02-13T00:28:55;102694.84;;;7.79;100.00
32733;BME280;11867;51.198;11.966;2023-02-13T00:29:58;102669.28;;;7.60;100.00
32733;BME280;11867;51.198;11.966;2023-02-13T00:31:04;102699.66;;;7.83;100.00
32733;BME280;11867;51.198;11.966;2023-02-13T00:32:07;102681.88;;;7.74;100.00
32733;BME280;11867;51.198;11.966;2023-02-13T00:33:09;102695.88;;;7.71;100.00
32733;BME280;11867;51.198;11.966;2023-02-13T00:34:12;102695.69;;;7.79;100.00
32733;BME280;11867;51.198;11.966;2023-02-13T00:35:15;102709.28;;;7.79;100.00
32733;BME280;11867;51.198;11.966;2023-02-13T00:36:19;102703.34;;;7.62;100.00
32733;BME280;11867;51.198;11.966;2023-02-13T00:37:21;102700.16;;;7.52;100.00
32733;BME280;11867;51.198;11.966;2023-02-13T00:38:24;102703.72;;;7.53;100.00
32733;BME280;11867;51.198;11.966;2023-02-13T00:39:26;102698.66;;;7.36;100.00
32733;BME280;11867;51.198;11.966;2023-02-13T00:40:28;102706.53;;;7.31;100.00
32733;BME280;11867;51.198;11.966;2023-02-13T00:41:30;102705.72;;;7.31;100.00
32733;BME280;11867;51.198;11.966;2023-02-13T00:42:32;102709.44;;;7.30;100.00
32733;BME280;11867;51.198;11.966;2023-02-13T00:43:34;102689.81;;;7.27;100.00
32733;BME280;11867;51.198;11.966;2023-02-13T00:44:37;102700.31;;;7.37;100.00
32733;BME280;11867;51.198;11.966;2023-02-13T00:45:39;102709.25;;;7.31;100.00
32733;BME280;11867;51.198;11.966;2023-02-13T00:46:41;102687.94;;;7.21;100.00
32733;BME280;11867;51.198;11.966;2023-02-13T00:47:43;102697.09;;;7.20;100.00
32733;BME280;11867;51.198;11.966;2023-02-13T00:48:45;102703.56;;;7.19;100.00
32733;BME280;11867;51.198;11.966;2023-02-13T00:49:47;102688.94;;;7.14;100.00
32733;BME280;11867;51.198;11.966;2023-02-13T00:50:51;102688.16;;;7.26;100.00
32733;BME280;11867;51.198;11.966;2023-02-13T00:51:52;102693.25;;;7.50;100.00
32733;BME280;11867;51.198;11.966;2023-02-13T00:52:55;102692.44;;;7.49;100.00
32733;BME280;11867;51.198;11.966;2023-02-13T00:53:56;102698.41;;;7.38;100.00
32733;BME280;11867;51.198;11.966;2023-02-13T00:54:59;102698.19;;;7.26;100.00
32733;BME280;11867;51.198;11.966;2023-02-13T00:56:01;102708.41;;;7.31;100.00
32733;BME280;11867;51.198;11.966;2023-02-13T00:57:04;102702.25;;;7.50;100.00
32733;BME280;11867;51.198;11.966;2023-02-13T00:58:08;102703.03;;;7.44;100.00
32733;BME280;11867;51.198;11.966;2023-02-13T00:59:11;102709.09;;;7.46;100.00
32733;BME280;11867;51.198;11.966;2023-02-13T01:00:13;102708.69;;;7.42;100.00
32733;BME280;11867;51.198;11.966;2023-02-13T01:01:18;102689.91;;;7.47;100.00
32733;BME280;11867;51.198;11.966;2023-02-13T01:02:20;102697.72;;;7.64;100.00
32733;BME280;11867;51.198;11.966;2023-02-13T01:03:23;102694.19;;;7.70;100.00
32733;BME280;11867;51.198;11.966;2023-02-13T01:04:25;102699.66;;;7.83;100.00
32733;BME280;11867;51.198;11.966;2023-02-13T01:05:28;102709.28;;;7.93;100.00
32733;BME280;11867;51.198;11.966;2023-02-13T01:06:31;102707.94;;;7.62;100.00
32733;BME280;11867;51.198;11.966;2023-02-13T01:07:33;102689.13;;;7.60;100.00
32733;BME280;11867;51.198;11.966;2023-02-13T01:08:38;102704.22;;;7.76;100.00
32733;BME280;11867;51.198;11.966;2023-02-13T01:09:40;102706.56;;;7.79;100.00
32733;BME280;11867;51.198;11.966;2023-02-13T01:10:43;102704.47;;;7.81;100.00
32733;BME280;11867;51.198;11.966;2023-02-13T01:11:46;102716.16;;;7.75;100.00
32733;BME280;11867;51.198;11.966;2023-02-13T01:12:48;102713.59;;;7.67;100.00
32733;BME280;11867;51.198;11.966;2023-02-13T01:13:51;102703.13;;;7.57;100.00
32733;BME280;11867;51.198;11.966;2023-02-13T01:14:52;102708.38;;;7.72;100.00
32733;BME280;11867;51.198;11.966;2023-02-13T01:15:55;102706.13;;;7.82;100.00
32733;BME280;11867;51.198;11.966;2023-02-13T01:16:56;102716.38;;;7.87;100.00
32733;BME280;11867;51.198;11.966;2023-02-13T01:17:59;102715.34;;;7.81;100.00
32733;BME280;11867;51.198;11.966;2023-02-13T01:19:01;102700.94;;;7.87;100.00
32733;BME280;11867;51.198;11.966;2023-02-13T01:20:04;102716.00;;;8.10;100.00
32733;BME280;11867;51.198;11.966;2023-02-13T01:21:07;102713.09;;;8.18;99.73
32733;BME280;11867;51.198;11.966;2023-02-13T01:22:11;102712.06;;;8.33;99.05
32733;BME280;11867;51.198;11.966;2023-02-13T01:23:13;102712.50;;;8.29;98.46
32733;BME280;11867;51.198;11.966;2023-02-13T01:24:16;102689.47;;;8.05;98.51
32733;BME280;11867;51.198;11.966;2023-02-13T01:25:17;102699.50;;;8.12;98.93
32733;BME280;11867;51.198;11.966;2023-02-13T01:26:21;102707.66;;;8.12;99.21
32733;BME280;11867;51.198;11.966;2023-02-13T01:27:23;102711.44;;;8.17;99.40
32733;BME280;11867;51.198;11.966;2023-02-13T01:28:26;102709.78;;;8.36;98.56
32733;BME280;11867;51.198;11.966;2023-02-13T01:29:28;102704.38;;;8.43;97.81
32733;BME280;11867;51.198;11.966;2023-02-13T01:30:30;102710.47;;;8.58;97.07
32733;BME280;11867;51.198;11.966;2023-02-13T01:31:32;102707.31;;;8.61;96.16
32733;BME280;11867;51.198;11.966;2023-02-13T01:32:35;102703.78;;;8.54;95.97
32733;BME280;11867;51.198;11.966;2023-02-13T01:33:37;102711.91;;;8.41;96.38
32733;BME280;11867;51.198;11.966;2023-02-13T01:34:40;102705.56;;;8.00;98.17
32733;BME280;11867;51.198;11.966;2023-02-13T01:35:41;102697.34;;;7.74;99.61
32733;BME280;11867;51.198;11.966;2023-02-13T01:36:44;102703.59;;;7.74;100.00
32733;BME280;11867;51.198;11.966;2023-02-13T01:37:47;102713.03;;;7.85;100.00
32733;BME280;11867;51.198;11.966;2023-02-13T01:38:52;102706.13;;;7.82;100.00
32733;BME280;11867;51.198;11.966;2023-02-13T01:39:53;102717.63;;;7.78;100.00
32733;BME280;11867;51.198;11.966;2023-02-13T01:40:56;102711.53;;;7.69;100.00
32733;BME280;11867;51.198;11.966;2023-02-13T01:41:59;102702.47;;;7.55;99.17
32733;BME280;11867;51.198;11.966;2023-02-13T01:43:01;102706.69;;;7.64;99.37
32733;BME280;11867;51.198;11.966;2023-02-13T01:45:46;102712.22;;;7.91;98.71
32733;BME280;11867;51.198;11.966;2023-02-13T01:46:49;102710.13;;;8.00;98.11
32733;BME280;11867;51.198;11.966;2023-02-13T01:47:53;102697.63;;;8.05;98.53
32733;BME280;11867;51.198;11.966;2023-02-13T01:49:00;102692.63;;;8.16;98.02
32733;BME280;11867;51.198;11.966;2023-02-13T01:50:07;102698.09;;;8.36;97.11
32733;BME280;11867;51.198;11.966;2023-02-13T01:51:13;102694.31;;;8.17;96.25
32733;BME280;11867;51.198;11.966;2023-02-13T01:52:18;102698.28;;;8.34;96.75
32733;BME280;11867;51.198;11.966;2023-02-13T01:53:25;102704.63;;;8.41;95.73
32733;BME280;11867;51.198;11.966;2023-02-13T01:54:30;102694.50;;;8.28;95.14
32733;BME280;11867;51.198;11.966;2023-02-13T01:55:38;102711.72;;;8.42;95.19
32733;BME280;11867;51.198;11.966;2023-02-13T01:56:47;102698.28;;;8.34;94.96
32733;BME280;11867;51.198;11.966;2023-02-13T01:57:52;102708.97;;;8.36;95.00
32733;BME280;11867;51.198;11.966;2023-02-13T01:59:00;102694.31;;;8.30;95.29
32733;BME280;11867;51.198;11.966;2023-02-13T02:00:06;102711.88;;;8.21;96.06
32733;BME280;11867;51.198;11.966;2023-02-13T02:01:10;102705.19;;;8.37;96.12
32733;BME280;11867;51.198;11.966;2023-02-13T02:02:12;102700.00;;;8.48;95.35
32733;BME280;11867;51.198;11.966;2023-02-13T02:03:18;102693.47;;;8.29;95.31
32733;BME280;11867;51.198;11.966;2023-02-13T02:04:23;102705.59;;;8.40;95.13
32733;BME280;11867;51.198;11.966;2023-02-13T02:05:29;102709.00;;;8.49;95.27
32733;BME280;11867;51.198;11.966;2023-02-13T02:06:35;102695.63;;;8.54;94.86
32733;BME280;11867;51.198;11.966;2023-02-13T02:07:40;102691.00;;;8.61;94.31
32733;BME280;11867;51.198;11.966;2023-02-13T02:08:44;102691.63;;;8.70;93.71
32733;BME280;11867;51.198;11.966;2023-02-13T02:09:51;102688.47;;;8.86;92.86
32733;BME280;11867;51.198;11.966;2023-02-13T02:10:55;102688.88;;;8.90;92.11
32733;BME280;11867;51.198;11.966;2023-02-13T02:12:05;102703.09;;;8.92;91.75
32733;BME280;11867;51.198;11.966;2023-02-13T02:13:11;102696.44;;;8.81;91.94
32733;BME280;11867;51.198;11.966;2023-02-13T02:14:13;102692.66;;;8.82;91.92
32733;BME280;11867;51.198;11.966;2023-02-13T02:15:15;102699.34;;;8.86;91.56
32733;BME280;11867;51.198;11.966;2023-02-13T02:16:18;102694.34;;;8.83;91.84
32733;BME280;11867;51.198;11.966;2023-02-13T02:17:21;102698.94;;;8.89;91.50
32733;BME280;11867;51.198;11.966;2023-02-13T02:18:25;102692.22;;;8.92;91.28
32733;BME280;11867;51.198;11.966;2023-02-13T02:19:42;102688.03;;;8.96;91.24
32733;BME280;11867;51.198;11.966;2023-02-13T02:21:09;102696.81;;;8.98;91.06
32733;BME280;11867;51.198;11.966;2023-02-13T02:22:50;102690.56;;;8.84;91.34
32733;BME280;11867;51.198;11.966;2023-02-13T02:24:32;102687.22;;;8.82;90.53
32733;BME280;11867;51.198;11.966;2023-02-13T02:25:49;102694.13;;;8.78;90.32
32733;BME280;11867;51.198;11.966;2023-02-13T02:27:07;102685.56;;;8.61;90.89
32733;BME280;11867;51.198;11.966;2023-02-13T02:28:40;102684.94;;;8.66;90.49
32733;BME280;11867;51.198;11.966;2023-02-13T02:31:48;102688.91;;;8.57;91.62
32733;BME280;11867;51.198;11.966;2023-02-13T02:33:02;102680.56;;;8.58;91.69
32733;BME280;11867;51.198;11.966;2023-02-13T02:34:13;102688.50;;;8.66;91.59
32733;BME280;11867;51.198;11.966;2023-02-13T02:35:26;102678.34;;;7.94;93.29
32733;BME280;11867;51.198;11.966;2023-02-13T02:36:34;102689.69;;;8.17;93.76
32733;BME280;11867;51.198;11.966;2023-02-13T02:37:51;102683.25;;;8.32;92.81
32733;BME280;11867;51.198;11.966;2023-02-13T02:39:04;102683.03;;;8.40;92.81
32733;BME280;11867;51.198;11.966;2023-02-13T02:40:17;102681.59;;;8.44;92.31
32733;BME280;11867;51.198;11.966;2023-02-13T02:41:32;102671.72;;;8.16;92.72
32733;BME280;11867;51.198;11.966;2023-02-13T02:42:55;102671.75;;;8.23;93.22
32733;BME280;11867;51.198;11.966;2023-02-13T02:44:06;102675.72;;;8.27;93.38
32733;BME280;11867;51.198;11.966;2023-02-13T02:45:20;102664.41;;;8.30;92.89
32733;BME280;11867;51.198;11.966;2023-02-13T02:46:30;102670.28;;;8.27;92.89
32733;BME280;11867;51.198;11.966;2023-02-13T02:47:41;102678.06;;;8.43;92.54
32733;BME280;11867;51.198;11.966;2023-02-13T02:49:05;102676.16;;;8.57;91.53
32733;BME280;11867;51.198;11.966;2023-02-13T02:50:33;102670.72;;;8.71;90.84
32733;BME280;11867;51.198;11.966;2023-02-13T02:51:41;102670.91;;;8.76;90.21
32733;BME280;11867;51.198;11.966;2023-02-13T02:52:56;102670.72;;;8.71;89.80
32733;BME280;11867;51.198;11.966;2023-02-13T02:54:07;102666.50;;;8.35;91.09
32733;BME280;11867;51.198;11.966;2023-02-13T02:55:34;102665.47;;;8.29;91.84
32733;BME280;11867;51.198;11.966;2023-02-13T02:56:42;102668.59;;;8.33;92.23
32733;BME280;11867;51.198;11.966;2023-02-13T02:57:47;102669.03;;;8.43;91.54
32733;BME280;11867;51.198;11.966;2023-02-13T02:59:12;102665.47;;;8.29;92.29
32733;BME280;11867;51.198;11.966;2023-02-13T03:00:49;102671.31;;;8.33;92.07
32733;BME280;11867;51.198;11.966;2023-02-13T03:02:20;102675.09;;;8.45;91.82
32733;BME280;11867;51.198;11.966;2023-02-13T03:03:43;102672.63;;;8.43;91.99
32733;BME280;11867;51.198;11.966;2023-02-13T03:05:15;102666.66;;;7.86;93.23
32733;BME280;11867;51.198;11.966;2023-02-13T03:06:39;102669.72;;;7.63;94.37
32733;BME280;11867;51.198;11.966;2023-02-13T03:07:45;102667.84;;;7.64;94.92
32733;BME280;11867;51.198;11.966;2023-02-13T03:08:51;102675.41;;;7.75;95.09
32733;BME280;11867;51.198;11.966;2023-02-13T03:10:20;102651.78;;;7.69;94.59
32733;BME280;11867;51.198;11.966;2023-02-13T03:11:50;102676.88;;;7.78;94.33
32733;BME280;11867;51.198;11.966;2023-02-13T03:13:14;102674.16;;;7.84;94.40
32733;BME280;11867;51.198;11.966;2023-02-13T03:14:26;102677.69;;;7.65;94.30
32733;BME280;11867;51.198;11.966;2023-02-13T03:15:29;102673.44;;;7.56;94.90
32733;BME280;11867;51.198;11.966;2023-02-13T03:16:31;102661.75;;;7.48;95.89
32733;BME280;11867;51.198;11.966;2023-02-13T03:17:51;102662.13;;;7.39;95.80
32733;BME280;11867;51.198;11.966;2023-02-13T03:19:19;102686.94;;;7.36;96.50
32733;BME280;11867;51.198;11.966;2023-02-13T03:20:45;102686.81;;;7.51;96.85
32733;BME280;11867;51.198;11.966;2023-02-13T03:22:09;102676.88;;;7.71;95.57
32733;BME280;11867;51.198;11.966;2023-02-13T03:23:31;102675.81;;;7.72;94.67
32733;BME280;11867;51.198;11.966;2023-02-13T03:24:39;102671.66;;;7.83;94.31
32733;BME280;11867;51.198;11.966;2023-02-13T03:26:06;102681.50;;;7.91;93.56
32733;BME280;11867;51.198;11.966;2023-02-13T03:27:22;102680.69;;;7.97;93.53
32733;BME280;11867;51.198;11.966;2023-02-13T03:28:50;102679.66;;;8.11;92.76
32733;BME280;11867;51.198;11.966;2023-02-13T03:30:20;102676.75;;;8.19;91.90
32733;BME280;11867;51.198;11.966;2023-02-13T03:31:27;102678.00;;;8.23;91.66
32733;BME280;11867;51.198;11.966;2023-02-13T03:32:38;102680.72;;;8.30;90.72
32733;BME280;11867;51.198;11.966;2023-02-13T03:33:54;102667.13;;;8.23;91.20
32733;BME280;11867;51.198;11.966;2023-02-13T03:35:11;102684.28;;;8.17;91.02
32733;BME280;11867;51.198;11.966;2023-02-13T03:36:42;102677.16;;;8.36;91.03
32733;BME280;11867;51.198;11.966;2023-02-13T03:38:08;102672.16;;;8.33;90.30
32733;BME280;11867;51.198;11.966;2023-02-13T03:39:17;102678.84;;;8.17;90.81
32733;BME280;11867;51.198;11.966;2023-02-13T03:40:26;102677.56;;;8.26;90.61
32733;BME280;11867;51.198;11.966;2023-02-13T03:41:35;102688.03;;;8.29;90.59
32733;BME280;11867;51.198;11.966;2023-02-13T03:42:41;102677.38;;;8.35;90.23
32733;BME280;11867;51.198;11.966;2023-02-13T03:43:54;102688.69;;;8.45;89.96
32733;BME280;11867;51.198;11.966;2023-02-13T03:45:02;102691.22;;;8.46;90.16
32733;BME280;11867;51.198;11.966;2023-02-13T03:46:25;102686.19;;;8.57;89.31
32733;BME280;11867;51.198;11.966;2023-02-13T03:47:28;102683.47;;;8.63;89.11
32733;BME280;11867;51.198;11.966;2023-02-13T03:48:33;102700.41;;;8.72;88.54
32733;BME280;11867;51.198;11.966;2023-02-13T03:49:54;102682.19;;;8.33;89.74
32733;BME280;11867;51.198;11.966;2023-02-13T03:51:13;102695.53;;;8.14;90.76
32733;BME280;11867;51.198;11.966;2023-02-13T03:52:22;102704.09;;;8.04;90.56
32733;BME280;11867;51.198;11.966;2023-02-13T03:53:28;102700.09;;;7.94;91.55
32733;BME280;11867;51.198;11.966;2023-02-13T03:54:34;102706.78;;;7.91;91.96
32733;BME280;11867;51.198;11.966;2023-02-13T03:55:58;102694.06;;;8.05;91.25
32733;BME280;11867;51.198;11.966;2023-02-13T03:57:20;102695.50;;;7.94;91.33
32733;BME280;11867;51.198;11.966;2023-02-13T03:58:45;102699.28;;;8.00;91.16
32733;BME280;11867;51.198;11.966;2023-02-13T04:00:12;102704.50;;;8.08;90.96
32733;BME280;11867;51.198;11.966;2023-02-13T04:01:17;102684.22;;;7.97;90.85
32733;BME280;11867;51.198;11.966;2023-02-13T04:02:24;102683.38;;;7.83;90.67
32733;BME280;11867;51.198;11.966;2023-02-13T04:03:30;102688.81;;;7.90;91.16
32733;BME280;11867;51.198;11.966;2023-02-13T04:04:39;102693.16;;;7.71;91.58
32733;BME280;11867;51.198;11.966;2023-02-13T04:05:47;102693.38;;;7.76;92.42
32733;BME280;11867;51.198;11.966;2023-02-13T04:06:54;102692.19;;;7.99;91.94
32733;BME280;11867;51.198;11.966;2023-02-13T04:07:59;102691.56;;;8.03;91.21
32733;BME280;11867;51.198;11.966;2023-02-13T04:09:02;102702.84;;;8.20;90.51
32733;BME280;11867;51.198;11.966;2023-02-13T04:10:05;102693.91;;;8.33;89.86
32733;BME280;11867;51.198;11.966;2023-02-13T04:11:12;102697.91;;;8.51;88.85
32733;BME280;11867;51.198;11.966;2023-02-13T04:12:18;102698.31;;;8.61;88.42
32733;BME280;11867;51.198;11.966;2023-02-13T04:13:26;102696.88;;;8.52;87.91
32733;BME280;11867;51.198;11.966;2023-02-13T04:14:35;102693.91;;;8.40;88.66
32733;BME280;11867;51.198;11.966;2023-02-13T04:15:41;102691.00;;;8.48;88.53
32733;BME280;11867;51.198;11.966;2023-02-13T04:16:48;102690.38;;;8.59;88.75
32733;BME280;11867;51.198;11.966;2023-02-13T04:17:57;102696.88;;;8.58;88.32
32733;BME280;11867;51.198;11.966;2023-02-13T04:19:04;102686.63;;;8.67;87.83
32733;BME280;11867;51.198;11.966;2023-02-13T04:20:09;102693.91;;;8.80;87.70
32733;BME280;11867;51.198;11.966;2023-02-13T04:21:12;102679.50;;;8.73;87.40
32733;BME280;11867;51.198;11.966;2023-02-13T04:22:16;102674.03;;;8.66;87.54
32733;BME280;11867;51.198;11.966;2023-02-13T04:23:18;102694.34;;;8.70;87.55
32733;BME280;11867;51.198;11.966;2023-02-13T04:24:21;102690.56;;;8.78;87.38
32733;BME280;11867;51.198;11.966;2023-02-13T04:25:23;102692.47;;;8.71;87.30
32733;BME280;11867;51.198;11.966;2023-02-13T04:26:34;102683.66;;;8.62;87.72
32733;BME280;11867;51.198;11.966;2023-02-13T04:27:38;102689.13;;;8.68;87.81
32733;BME280;11867;51.198;11.966;2023-02-13T04:28:40;102681.59;;;8.71;87.65
32733;BME280;11867;51.198;11.966;2023-02-13T04:29:42;102685.97;;;8.85;86.93
32733;BME280;11867;51.198;11.966;2023-02-13T04:30:45;102667.59;;;8.60;87.18
32733;BME280;11867;51.198;11.966;2023-02-13T04:31:47;102690.16;;;8.61;87.89
32733;BME280;11867;51.198;11.966;2023-02-13T04:32:49;102684.09;;;8.65;88.22
32733;BME280;11867;51.198;11.966;2023-02-13T04:33:53;102682.00;;;8.74;88.19
32733;BME280;11867;51.198;11.966;2023-02-13T04:34:55;102687.84;;;8.58;87.80
32733;BME280;11867;51.198;11.966;2023-02-13T04:35:57;102681.38;;;8.65;88.03
32733;BME280;11867;51.198;11.966;2023-02-13T04:36:59;102690.16;;;8.81;87.72
32733;BME280;11867;51.198;11.966;2023-02-13T04:38:04;102676.34;;;8.76;87.57
32733;BME280;11867;51.198;11.966;2023-02-13T04:39:06;102676.78;;;8.79;87.51
32733;BME280;11867;51.198;11.966;2023-02-13T04:40:09;102675.94;;;8.79;87.44
32733;BME280;11867;51.198;11.966;2023-02-13T04:41:12;102676.13;;;8.84;87.08
32733;BME280;11867;51.198;11.966;2023-02-13T04:42:14;102667.75;;;8.85;86.92
32733;BME280;11867;51.198;11.966;2023-02-13T04:43:16;102669.22;;;8.88;87.11
32733;BME280;11867;51.198;11.966;2023-02-13T04:44:19;102682.16;;;8.93;87.55
32733;BME280;11867;51.198;11.966;2023-02-13T04:45:22;102664.63;;;8.82;87.10
32733;BME280;11867;51.198;11.966;2023-02-13T04:46:24;102663.38;;;8.78;87.08
32733;BME280;11867;51.198;11.966;2023-02-13T04:47:26;102669.25;;;8.61;87.45
32733;BME280;11867;51.198;11.966;2023-02-13T04:48:28;102681.59;;;8.71;87.88
32733;BME280;11867;51.198;11.966;2023-02-13T04:49:30;102667.16;;;8.77;87.58
32733;BME280;11867;51.198;11.966;2023-02-13T04:50:32;102678.03;;;8.77;87.72
32733;BME280;11867;51.198;11.966;2023-02-13T04:51:34;102684.28;;;8.84;87.69
32733;BME280;11867;51.198;11.966;2023-02-13T04:52:36;102670.50;;;8.79;87.35
32733;BME280;11867;51.198;11.966;2023-02-13T04:53:40;102679.06;;;8.82;87.45
32733;BME280;11867;51.198;11.966;2023-02-13T04:54:42;102675.50;;;8.82;87.33
32733;BME280;11867;51.198;11.966;2023-02-13T04:55:45;102677.41;;;8.81;87.34
32733;BME280;11867;51.198;11.966;2023-02-13T04:56:47;102677.16;;;8.76;87.34
32733;BME280;11867;51.198;11.966;2023-02-13T04:57:51;102679.28;;;8.81;87.41
32733;BME280;11867;51.198;11.966;2023-02-13T04:58:54;102680.09;;;8.81;87.24
32733;BME280;11867;51.198;11.966;2023-02-13T04:59:57;102679.28;;;8.81;87.03
32733;BME280;11867;51.198;11.966;2023-02-13T05:00:59;102682.59;;;8.89;87.08
32733;BME280;11867;51.198;11.966;2023-02-13T05:02:02;102666.91;;;8.92;86.99
32733;BME280;11867;51.198;11.966;2023-02-13T05:03:04;102665.25;;;8.84;87.12
32733;BME280;11867;51.198;11.966;2023-02-13T05:04:07;102672.56;;;8.83;86.96
32733;BME280;11867;51.198;11.966;2023-02-13T05:05:09;102675.72;;;8.87;86.90
32733;BME280;11867;51.198;11.966;2023-02-13T05:06:11;102674.47;;;8.83;86.89
32733;BME280;11867;51.198;11.966;2023-02-13T05:07:13;102676.13;;;8.84;87.22
32733;BME280;11867;51.198;11.966;2023-02-13T05:08:16;102668.41;;;8.81;87.02
32733;BME280;11867;51.198;11.966;2023-02-13T05:09:19;102676.34;;;8.89;86.83
32733;BME280;11867;51.198;11.966;2023-02-13T05:10:23;102670.47;;;8.85;86.71
32733;BME280;11867;51.198;11.966;2023-02-13T05:11:24;102679.88;;;8.96;86.67
32733;BME280;11867;51.198;11.966;2023-02-13T05:12:27;102658.94;;;8.90;86.61
32733;BME280;11867;51.198;11.966;2023-02-13T05:13:29;102671.72;;;8.96;86.64
32733;BME280;11867;51.198;11.966;2023-02-13T05:14:32;102667.94;;;8.91;86.61
32733;BME280;11867;51.198;11.966;2023-02-13T05:15:33;102665.41;;;9.02;86.37
32733;BME280;11867;51.198;11.966;2023-02-13T05:16:36;102669.88;;;8.77;86.62
32733;BME280;11867;51.198;11.966;2023-02-13T05:17:38;102666.13;;;8.64;87.22
32733;BME280;11867;51.198;11.966;2023-02-13T05:18:40;102658.78;;;8.72;87.15
32733;BME280;11867;51.198;11.966;2023-02-13T05:19:42;102678.00;;;8.90;86.86
32733;BME280;11867;51.198;11.966;2023-02-13T05:20:44;102680.50;;;8.98;86.61
32733;BME280;11867;51.198;11.966;2023-02-13T05:22:07;102657.72;;;8.86;86.28
32733;BME280;11867;51.198;11.966;2023-02-13T05:23:28;102675.06;;;8.78;86.71
32733;BME280;11867;51.198;11.966;2023-02-13T05:24:31;102682.81;;;8.88;86.97
32733;BME280;11867;51.198;11.966;2023-02-13T05:25:36;102685.34;;;8.83;86.88
32733;BME280;11867;51.198;11.966;2023-02-13T05:26:38;102688.91;;;8.83;86.94
32733;BME280;11867;51.198;11.966;2023-02-13T05:27:40;102684.06;;;8.92;86.77
32733;BME280;11867;51.198;11.966;2023-02-13T05:28:44;102674.88;;;8.73;87.11
32733;BME280;11867;51.198;11.966;2023-02-13T05:30:05;102682.00;;;8.81;87.03
32733;BME280;11867;51.198;11.966;2023-02-13T05:31:08;102679.28;;;8.81;87.07
32733;BME280;11867;51.198;11.966;2023-02-13T05:32:10;102677.38;;;8.88;87.01
32733;BME280;11867;51.198;11.966;2023-02-13T05:33:13;102676.16;;;8.51;87.49
32733;BME280;11867;51.198;11.966;2023-02-13T05:34:15;102666.13;;;8.51;88.07
32733;BME280;11867;51.198;11.966;2023-02-13T05:35:18;102664.47;;;8.50;88.31
32733;BME280;11867;51.198;11.966;2023-02-13T05:36:21;102676.16;;;8.71;87.86
32733;BME280;11867;51.198;11.966;2023-02-13T05:37:24;102673.63;;;8.76;87.39
32733;BME280;11867;51.198;11.966;2023-02-13T05:38:26;102669.00;;;8.76;86.96
32733;BME280;11867;51.198;11.966;2023-02-13T05:39:29;102668.59;;;8.79;86.82
32733;BME280;11867;51.198;11.966;2023-02-13T05:40:32;102664.63;;;8.75;86.99
32733;BME280;11867;51.198;11.966;2023-02-13T05:41:35;102678.66;;;8.85;87.12
32733;BME280;11867;51.198;11.966;2023-02-13T05:42:36;102675.09;;;8.85;86.82
32733;BME280;11867;51.198;11.966;2023-02-13T05:43:39;102674.66;;;8.88;86.73
32733;BME280;11867;51.198;11.966;2023-02-13T05:44:41;102678.84;;;8.97;86.44
32733;BME280;11867;51.198;11.966;2023-02-13T05:45:43;102668.34;;;9.01;85.98
32733;BME280;11867;51.198;11.966;2023-02-13T05:46:46;102662.31;;;8.92;85.84
32733;BME280;11867;51.198;11.966;2023-02-13T05:47:49;102678.00;;;8.90;86.44
32733;BME280;11867;51.198;11.966;2023-02-13T05:48:51;102662.34;;;8.59;86.83
32733;BME280;11867;51.198;11.966;2023-02-13T05:49:54;102671.94;;;8.21;88.41
32733;BME280;11867;51.198;11.966;2023-02-13T05:50:55;102675.44;;;7.88;90.79
32733;BME280;11867;51.198;11.966;2023-02-13T05:51:59;102675.00;;;7.85;92.06
32733;BME280;11867;51.198;11.966;2023-02-13T05:53:02;102680.91;;;8.08;91.59